Latest Weather Observations for Smithton

IDT60801

Issued at 11:01 am EST Tuesday 4 August 2015 (issued every 30 minutes, with the page automatically refreshed every 10 minutes)

About weather observations | Map of weather stations | Latest weather observations for TAS | Other Formats
Station Details ID: 091292 Name: SMITHTON AERODROME Lat: -40.83 Lon: 145.08 Height: 7.5 m
Data from the previous 72 hours. | See also: Recent months at Smithton
Date/Time
EST
Temp
°C
App
Temp
°C
Dew
Point
Rel
Hum
%
Delta-T
°C
Wind Press
QNH
hPa
Press
MSL
hPa
Rain
since 9 am
mm
Dir
 
Spd
km/h
Gust
km/h
Spd
kts
Gust
kts
04/11:00am 11.0 6.5 8.4 84 1.3 WNW 22 30 12 16 1015.7 - 0.2
04/10:30am 8.9 4.1 7.4 90 0.7 WNW 22 30 12 16 1016.5 - 0.2
04/10:00am 9.1 4.9 7.4 89 0.8 W 19 26 10 14 1016.8 - 0.0
04/09:30am 8.1 3.9 7.5 96 0.3 WNW 19 30 10 16 1017.4 - 0.0
04/09:00am 7.3 3.0 7.2 99 0.0 WNW 19 22 10 12 1017.5 1017.5 2.0
04/08:30am 6.5 2.4 6.4 99 0.0 W 17 20 9 11 1017.9 - 2.0
04/08:00am 6.2 1.1 6.1 99 0.0 W 22 28 12 15 1017.9 - 1.8
04/07:30am 4.9 -0.8 4.9 100 0.0 W 24 37 13 20 1018.0 - 1.6
04/07:00am 1.3 -1.3 1.2 99 0.0 S 4 11 2 6 1018.1 - 1.6
04/06:30am 1.2 -0.6 1.1 99 0.0 CALM 0 0 0 0 1018.2 - 1.6
04/06:00am 1.4 -0.8 1.3 99 0.0 W 2 11 1 6 1018.2 1018.2 1.6
04/05:30am 2.7 -0.2 2.6 99 0.0 WSW 7 9 4 5 1018.1 - 1.6
04/05:00am 3.0 -1.0 2.9 99 0.0 WSW 13 17 7 9 1018.3 - 1.6
04/04:30am 2.1 -1.7 1.8 98 0.1 W 11 13 6 7 1018.2 - 1.0
04/04:00am 3.0 -1.0 2.9 99 0.0 WSW 13 19 7 10 1018.5 - 1.0
04/03:30am 1.9 -2.3 1.8 99 0.0 W 13 15 7 8 1018.6 - 1.0
04/03:00am 1.8 -2.8 1.7 99 0.0 W 15 17 8 9 1019.0 1019.0 1.0
04/02:30am 0.1 -3.6 0.0 99 0.0 W 9 15 5 8 1019.4 - 1.0
04/02:00am -0.9 -3.4 -1.0 99 0.0 W 2 6 1 3 1019.4 - 1.0
04/01:30am 0.0 -2.0 -0.1 99 0.0 CALM 0 0 0 0 1019.7 - 1.0
04/01:00am -0.2 -2.2 -0.3 99 0.0 CALM 0 0 0 0 1019.9 - 1.0
04/12:30am 0.4 -1.9 0.3 99 0.0 W 2 6 1 3 1020.1 - 1.0
04/12:00am -0.3 -3.5 -0.4 99 0.0 SW 6 7 3 4 1020.3 1020.3 1.0
 
Date/Time
EST
Temp
°C
App
Temp
°C
Dew
Point
Rel
Hum
%
Delta-T
°C
Wind Press
QNH
hPa
Press
MSL
hPa
Rain
since 9 am
mm
Dir
 
Spd
km/h
Gust
km/h
Spd
kts
Gust
kts
03/11:30pm -0.6 -4.0 -0.7 99 0.0 WSW 7 9 4 5 1020.6 - 1.0
03/11:00pm -0.6 -4.4 -0.9 98 0.1 WSW 9 9 5 5 1020.7 - 1.0
03/10:30pm -0.2 -3.6 -0.6 97 0.1 S 7 9 4 5 1020.9 - 1.0
03/10:00pm 0.0 -2.5 -0.7 95 0.2 SSW 2 7 1 4 1020.7 - 1.0
03/09:30pm 1.2 -0.7 0.3 94 0.3 CALM 0 0 0 0 1020.5 - 1.0
03/09:00pm 1.2 -1.9 0.0 92 0.4 W 6 7 3 4 1020.2 1020.2 1.0
03/08:30pm 1.2 -3.6 -0.1 91 0.5 W 15 17 8 9 1020.1 - 1.0
03/08:00pm 1.5 -3.0 -0.3 88 0.7 WNW 13 15 7 8 1020.0 - 1.0
03/07:30pm 2.5 -0.6 0.2 85 0.9 WSW 6 9 3 5 1019.9 - 1.0
03/07:00pm 3.1 -1.4 -0.2 79 1.2 W 13 15 7 8 1019.3 - 1.0
03/06:30pm 3.7 -1.1 0.4 79 1.2 WSW 15 20 8 11 1018.7 - 1.0
03/06:00pm 4.1 -1.1 0.3 76 1.4 W 17 20 9 11 1018.1 1018.1 1.0
03/05:30pm 5.2 -0.3 0.6 72 1.8 WSW 19 26 10 14 1017.4 - 1.0
03/05:00pm 6.2 0.1 0.1 65 2.4 WSW 22 32 12 17 1017.0 - 1.0
03/04:30pm 7.0 -0.7 -0.2 60 2.8 WSW 30 41 16 22 1016.1 - 1.0
03/04:24pm 7.0 -1.0 0.5 63 2.6 WSW 32 50 17 27 1016.0 - 1.0
03/04:00pm 7.5 -1.6 -0.5 57 3.1 SW 37 48 20 26 1015.8 - 1.0
03/03:30pm 7.8 -2.1 -0.7 55 3.3 SW 41 59 22 32 1015.6 - 1.0
03/03:09pm 8.0 -1.3 0.3 58 3.0 SW 39 59 21 32 1015.3 - 1.0
03/03:00pm 8.1 -0.8 1.0 61 2.9 SW 37 48 20 26 1015.1 1015.1 1.0
03/02:43pm 7.5 -2.0 -0.5 57 3.1 SW 39 57 21 31 1014.8 - 1.0
03/02:30pm 8.4 -1.1 -0.9 52 3.6 SW 39 50 21 27 1014.5 - 1.0
03/02:00pm 7.4 -2.4 -0.5 57 3.0 SW 41 61 22 33 1014.3 - 1.0
03/01:33pm 8.1 -0.6 1.7 64 2.6 SW 37 56 20 30 1014.0 - 1.0
03/01:30pm 8.0 -1.6 1.4 63 2.7 SW 41 57 22 31 1013.9 - 1.0
03/01:00pm 8.0 -1.9 1.4 63 2.7 SW 43 61 23 33 1013.5 - 1.0
03/12:30pm 7.0 -0.7 2.3 72 1.9 WSW 32 50 17 27 1013.4 - 1.0
03/12:29pm 6.9 0.0 2.4 73 1.9 WSW 28 50 15 27 1013.4 - 1.0
03/12:00pm 4.8 -2.1 2.5 85 0.9 WSW 28 43 15 23 1013.3 1013.3 1.0
03/11:30am 6.2 -2.4 2.8 79 1.4 SW 37 54 20 29 1012.9 - 0.2
03/11:25am 4.9 -5.0 1.9 81 1.2 SSW 43 72 23 39 1012.9 - 0.2
03/11:21am 4.1 -6.9 0.6 78 1.3 SSW 48 72 26 39 1012.8 - 0.2
03/11:11am 5.5 -3.9 2.3 80 1.3 WSW 41 59 22 32 1012.5 - 0.2
03/11:00am 5.9 -3.5 2.4 78 1.4 WSW 41 56 22 30 1012.2 - 0.0
03/10:30am 5.1 -2.7 1.9 80 1.3 WSW 32 46 17 25 1011.7 - 0.0
03/10:23am 4.5 -4.7 1.2 79 1.3 WSW 39 57 21 31 1011.6 - 0.0
03/10:14am 5.2 -4.8 1.1 75 1.6 WSW 43 65 23 35 1011.5 - 0.0
03/10:05am 4.5 -4.4 0.8 77 1.4 SW 37 56 20 30 1011.2 - 0.0
03/10:00am 5.6 -2.5 1.2 73 1.7 SW 33 43 18 23 1011.2 - 0.0
03/09:34am 4.4 -4.9 0.7 77 1.4 SW 39 57 21 31 1010.4 - 0.0
03/09:30am 4.1 -6.0 0.6 78 1.3 SW 43 57 23 31 1010.3 - 0.0
03/09:21am 4.6 -4.7 0.9 77 1.4 SSW 39 52 21 28 1010.6 - 0.0
03/09:00am 4.0 -4.2 0.3 77 1.4 WSW 33 46 18 25 1009.5 1009.5 12.0
03/08:30am 3.8 -3.8 0.5 79 1.3 SW 30 37 16 20 1009.3 - 11.6
03/08:07am 3.4 -3.8 0.8 83 1.0 WSW 28 50 15 27 1008.5 - 11.6
03/08:00am 2.6 -2.9 0.3 85 0.9 WSW 19 22 10 12 1008.4 - 11.6
03/07:31am 2.5 -6.0 0.6 87 0.7 SW 35 63 19 34 1007.4 - 11.6
03/07:30am 2.4 -6.5 0.5 87 0.7 SW 37 69 20 37 1007.3 - 11.6
03/07:26am 2.4 -6.9 0.6 88 0.7 SW 39 76 21 41 1007.5 - 11.6
03/07:18am 2.9 -11.4 0.5 84 0.9 SW 65 83 35 45 1007.7 - 11.6
03/07:16am 3.1 -11.9 0.5 83 1.0 WSW 69 83 37 45 1007.9 - 11.6
03/07:14am 3.6 -5.0 0.5 80 1.2 SW 35 70 19 38 1007.8 - 11.6
03/07:00am 3.8 -4.8 0.5 79 1.3 SW 35 52 19 28 1006.9 - 11.6
03/06:59am 3.9 -5.1 0.4 78 1.3 SW 37 52 20 28 1006.8 - 11.6
03/06:31am 3.4 -4.7 0.8 83 1.0 WSW 33 52 18 28 1006.0 - 11.4
03/06:30am 3.5 -5.0 0.9 83 1.0 WSW 35 52 19 28 1006.0 - 11.4
03/06:00am 3.1 -5.0 0.8 85 0.9 WSW 33 44 18 24 1005.3 1005.3 11.2
03/05:37am 3.8 -4.3 0.8 81 1.1 WSW 33 63 18 34 1005.2 - 11.0
03/05:30am 4.1 -3.5 0.8 79 1.3 WSW 30 46 16 25 1004.8 - 11.0
03/05:00am 3.8 -4.5 2.0 88 0.7 WSW 35 54 19 29 1004.2 - 11.0
03/04:30am 3.4 -5.8 1.3 86 0.8 W 39 57 21 31 1003.6 - 11.0
03/04:00am 2.6 -6.4 2.5 99 0.0 WSW 39 50 21 27 1003.2 - 11.0
03/03:30am 3.4 -6.3 2.7 95 0.3 W 43 80 23 43 1003.1 - 10.0
03/03:27am 3.9 -4.4 2.1 88 0.7 W 35 80 19 43 1002.8 - 9.8
03/03:16am 4.4 -4.3 1.9 84 1.0 WSW 37 56 20 30 1002.4 - 9.4
03/03:00am 4.2 -3.6 2.6 89 0.6 W 33 48 18 26 1002.3 1002.3 9.4
03/02:49am 3.6 -5.1 2.3 91 0.5 WSW 37 56 20 30 1002.0 - 9.4
03/02:41am 3.9 -6.0 3.0 94 0.4 WSW 44 89 24 48 1002.4 - 9.4
03/02:38am 4.3 -10.5 3.0 91 0.5 W 70 89 38 48 1002.7 - 9.4
03/02:37am 4.6 -4.0 2.8 88 0.7 W 37 80 20 43 1002.4 - 9.4
03/02:35am 5.1 -2.6 2.5 83 1.1 W 32 52 17 28 1002.6 - 9.2
03/02:30am 4.8 -2.5 2.3 84 1.0 W 30 43 16 23 1002.0 - 9.2
03/02:00am 5.0 -3.1 3.5 90 0.6 WSW 35 44 19 24 1002.0 - 9.2
03/01:40am 4.9 -1.7 4.2 95 0.3 WSW 28 48 15 26 1002.0 - 9.2
03/01:30am 4.8 -1.0 4.5 98 0.1 WSW 24 32 13 17 1002.0 - 9.2
03/01:00am 4.3 -2.4 3.9 97 0.2 WSW 28 37 15 20 1001.6 - 9.0
03/12:33am 4.8 -2.6 4.1 95 0.3 WSW 32 61 17 33 1001.7 - 8.6
03/12:30am 5.4 -1.1 4.5 94 0.4 WSW 28 37 15 20 1001.6 - 8.2
03/12:00am 5.0 -2.9 4.6 97 0.2 WSW 35 48 19 26 1001.4 1001.4 8.0
 
Date/Time
EST
Temp
°C
App
Temp
°C
Dew
Point
Rel
Hum
%
Delta-T
°C
Wind Press
QNH
hPa
Press
MSL
hPa
Rain
since 9 am
mm
Dir
 
Spd
km/h
Gust
km/h
Spd
kts
Gust
kts
02/11:30pm 5.8 -2.6 5.7 99 0.0 WSW 39 52 21 28 1000.9 - 7.6
02/11:05pm 5.6 -1.5 5.6 100 0.0 W 32 50 17 27 1000.5 - 7.6
02/11:00pm 5.6 -2.0 5.6 100 0.0 WSW 35 50 19 27 1000.7 - 7.6
02/10:40pm 6.4 -1.8 6.4 100 0.0 WSW 39 50 21 27 1001.0 - 7.6
02/10:30pm 6.5 0.0 6.5 100 0.0 W 30 43 16 23 1000.5 - 7.4
02/10:01pm 5.8 -1.8 5.8 100 0.0 W 35 54 19 29 1001.1 - 7.4
02/10:00pm 5.8 -2.2 5.8 100 0.0 W 37 54 20 29 1001.1 - 7.4
02/09:52pm 6.0 -3.3 6.0 100 0.0 W 44 87 24 47 1001.3 - 7.4
02/09:47pm 6.4 -7.5 6.4 100 0.0 W 69 87 37 47 1001.2 - 7.2
02/09:46pm 6.6 -1.6 6.6 100 0.0 WNW 39 87 21 47 1001.2 - 7.2
02/09:45pm 6.8 -0.6 6.8 100 0.0 WNW 35 61 19 33 1001.3 - 7.2
02/09:30pm 6.1 -1.4 6.1 100 0.0 WNW 35 44 19 24 1001.1 - 7.2
02/09:05pm 5.4 -4.0 5.4 100 0.0 W 44 72 24 39 1001.5 - 7.2
02/09:00pm 5.4 -4.4 5.4 100 0.0 W 46 74 25 40 1001.9 1001.9 7.0
02/08:48pm 4.6 -9.8 4.3 98 0.1 W 69 87 37 47 1002.3 - 6.2
02/08:46pm 5.5 -9.0 4.6 94 0.4 W 70 85 38 46 1002.6 - 5.8
02/08:45pm 7.0 -0.7 5.3 89 0.8 W 35 85 19 46 1002.0 - 5.4
02/08:30pm 7.1 -1.5 4.6 84 1.1 W 39 52 21 28 1001.6 - 5.0
02/08:23pm 6.9 -1.2 5.2 89 0.7 W 37 48 20 26 1001.7 - 5.0
02/08:02pm 7.2 -0.4 4.0 80 1.4 WSW 33 61 18 33 1001.7 - 4.8
02/08:00pm 7.5 -0.5 3.9 78 1.5 WSW 35 61 19 33 1001.6 - 4.8
02/07:59pm 7.5 -0.1 3.7 77 1.6 WSW 33 61 18 33 1001.6 - 4.8
02/07:30pm 7.7 -1.9 3.4 74 1.8 WNW 43 63 23 34 1001.6 - 4.8
02/07:13pm 7.6 0.4 2.9 72 2.0 W 30 52 16 28 1001.8 - 4.8
02/07:00pm 6.2 1.4 4.8 91 0.6 W 19 32 10 17 1002.0 - 4.8
02/06:30pm 5.4 0.9 4.1 91 0.6 W 17 24 9 13 1002.1 - 4.6
02/06:00pm 5.9 1.4 4.2 89 0.7 W 17 26 9 14 1002.5 1002.5 4.4
02/05:30pm 5.5 -0.4 4.0 90 0.6 W 24 32 13 17 1002.3 - 4.4
02/05:00pm 5.4 -1.6 4.1 91 0.6 W 30 43 16 23 1002.1 - 4.4
02/04:43pm 6.3 -1.0 4.3 87 0.9 WSW 32 50 17 27 1002.5 - 4.2
02/04:30pm 6.4 -1.1 4.4 87 0.9 WSW 33 44 18 24 1002.3 - 4.0
02/04:13pm 7.1 -4.5 4.1 81 1.3 W 54 72 29 39 1002.3 - 4.0
02/04:11pm 7.2 -5.4 3.6 78 1.5 W 59 72 32 39 1002.1 - 4.0
02/04:08pm 7.8 -0.3 3.5 74 1.8 W 35 65 19 35 1002.1 - 3.8
02/04:00pm 8.7 0.9 2.7 66 2.5 W 33 43 18 23 1001.8 - 3.8
02/03:30pm 8.4 0.1 2.0 64 2.7 W 35 50 19 27 1001.8 - 3.8
02/03:09pm 9.3 0.1 1.5 58 3.2 W 39 59 21 32 1001.4 - 3.8
02/03:00pm 9.4 1.5 4.4 71 2.2 W 35 50 19 27 1001.6 1001.6 3.8
02/02:39pm 8.7 2.2 4.7 76 1.8 W 28 46 15 25 1001.5 - 3.8
02/02:30pm 8.0 1.1 4.8 80 1.4 W 30 39 16 21 1001.6 - 3.8
02/02:03pm 8.0 1.1 4.6 79 1.5 W 30 59 16 32 1001.1 - 3.8
02/02:00pm 7.8 1.3 4.7 81 1.4 W 28 39 15 21 1001.1 - 3.8
02/01:30pm 7.0 0.2 6.9 99 0.0 WSW 32 48 17 26 1001.5 - 3.8
02/01:00pm 6.5 -2.1 6.5 100 0.0 SW 41 63 22 34 1001.9 - 3.8
02/12:30pm 6.9 -3.7 6.9 100 0.0 WSW 52 70 28 38 1001.5 - 3.8
02/12:29pm 7.1 -3.1 7.1 100 0.0 WSW 50 70 27 38 1001.4 - 3.8
02/12:12pm 8.4 -1.1 8.3 99 0.0 W 48 95 26 51 1000.6 - 2.6
02/12:11pm 8.4 -1.9 8.3 99 0.0 W 52 95 28 51 1000.6 - 2.6
02/12:07pm 9.1 -5.8 8.2 94 0.4 WNW 76 95 41 51 1000.8 - 1.4
02/12:06pm 10.0 -0.3 8.3 89 0.8 WNW 52 95 28 51 1000.5 - 1.0
02/12:03pm 10.8 0.8 8.0 83 1.4 WNW 50 69 27 37 1000.3 - 0.8
02/12:00pm 11.2 0.8 7.9 80 1.6 WNW 52 69 28 37 1000.2 1000.2 0.8
02/11:35am 10.2 1.6 8.3 88 0.9 NW 43 61 23 33 1001.1 - 0.8
02/11:30am 10.7 2.0 7.9 83 1.4 NW 43 56 23 30 1001.2 - 0.8
02/11:15am 10.6 2.7 7.8 83 1.4 NW 39 61 21 33 1001.9 - 0.8
02/11:00am 10.4 2.6 8.3 87 1.0 NW 39 56 21 30 1002.3 - 0.8
02/10:30am 9.5 2.1 8.3 92 0.6 WNW 37 57 20 31 1002.9 - 0.6
02/10:00am 9.7 2.7 8.5 92 0.6 NW 35 54 19 29 1003.3 - 0.4
02/09:42am 10.1 3.2 7.2 82 1.4 NW 33 54 18 29 1003.6 - 0.0
02/09:30am 10.1 4.2 7.5 84 1.2 NW 28 41 15 22 1003.7 - 0.0
02/09:00am 8.9 3.9 8.0 94 0.4 WNW 24 37 13 20 1004.4 1004.4 3.6
02/08:30am 8.1 1.3 7.0 93 0.5 WNW 32 54 17 29 1005.0 - 3.2
02/08:18am 8.6 3.0 7.2 91 0.7 WNW 26 61 14 33 1005.2 - 3.0
02/08:00am 8.1 2.0 6.7 91 0.6 WNW 28 37 15 20 1005.1 - 2.8
02/07:33am 8.0 1.6 6.8 92 0.6 NW 30 48 16 26 1005.6 - 2.6
02/07:30am 8.1 1.3 6.9 92 0.6 NW 32 48 17 26 1005.6 - 2.6
02/07:24am 8.3 2.1 6.3 87 0.9 WNW 28 48 15 26 1005.7 - 2.4
02/07:00am 7.8 3.4 6.6 92 0.6 NW 19 24 10 13 1006.0 - 2.2
02/06:30am 7.7 3.8 7.1 96 0.3 NW 17 20 9 11 1006.1 - 2.2
02/06:00am 7.8 4.3 7.2 96 0.3 W 15 20 8 11 1006.3 1006.3 2.0
02/05:30am 7.6 3.0 6.7 94 0.4 NW 20 26 11 14 1006.6 - 2.0
02/05:00am 7.8 2.9 6.7 93 0.5 W 22 37 12 20 1007.1 - 2.0
02/04:30am 7.4 3.3 6.0 91 0.6 WNW 17 22 9 12 1007.5 - 1.8
02/04:00am 7.9 2.4 5.7 86 1.0 WNW 24 32 13 17 1007.8 - 1.6
02/03:30am 7.7 3.1 6.6 93 0.5 WNW 20 28 11 15 1008.2 - 1.6
02/03:00am 7.7 2.0 6.6 93 0.5 WNW 26 39 14 21 1008.8 1008.8 1.6
02/02:30am 7.6 2.7 7.0 96 0.3 WNW 22 32 12 17 1009.3 - 1.6
02/02:00am 7.0 3.0 6.6 97 0.2 NW 17 24 9 13 1009.4 - 1.2
02/01:30am 5.9 3.7 5.2 95 0.3 NW 6 9 3 5 1009.8 - 1.2
02/01:00am 6.7 3.6 5.7 93 0.4 NW 11 15 6 8 1010.3 - 1.2
02/12:30am 7.4 1.6 6.3 93 0.5 W 26 32 14 17 1010.5 - 1.2
02/12:00am 7.0 2.4 6.4 96 0.3 WNW 20 26 11 14 1010.8 1010.8 1.2
 
Date/Time
EST
Temp
°C
App
Temp
°C
Dew
Point
Rel
Hum
%
Delta-T
°C
Wind Press
QNH
hPa
Press
MSL
hPa
Rain
since 9 am
mm
Dir
 
Spd
km/h
Gust
km/h
Spd
kts
Gust
kts
01/11:30pm 6.2 3.9 4.7 90 0.6 NNW 6 7 3 4 1011.0 - 0.6
01/11:00pm 7.0 2.8 5.8 92 0.5 WNW 17 20 9 11 1011.3 - 0.6
01/10:30pm 6.6 3.4 4.9 89 0.7 W 11 20 6 11 1011.6 - 0.4
01/10:00pm 6.7 2.3 4.7 87 0.9 W 17 20 9 11 1011.8 - 0.4
01/09:30pm 7.1 2.3 5.6 90 0.7 NW 20 32 11 17 1011.9 - 0.4
01/09:00pm 7.1 2.7 4.8 85 1.0 NW 17 26 9 14 1012.0 1012.0 0.2
01/08:30pm 5.8 4.5 4.1 89 0.7 CALM 0 6 0 3 1011.9 - 0.2
01/08:00pm 6.3 2.4 5.4 94 0.4 W 15 20 8 11 1012.0 - 0.2
01/07:30pm 5.0 3.2 3.3 89 0.7 NW 2 6 1 3 1011.9 - 0.2
01/07:00pm 6.3 2.5 4.1 86 0.9 NW 13 17 7 9 1011.7 - 0.2
01/06:30pm 6.1 2.2 3.4 83 1.1 WNW 13 19 7 10 1011.5 - 0.2
01/06:00pm 7.1 1.9 3.7 79 1.5 WNW 20 26 11 14 1011.3 1011.3 0.2
01/05:30pm 6.7 2.4 3.5 80 1.4 W 15 17 8 9 1011.0 - 0.2
01/05:00pm 7.9 3.8 4.1 77 1.6 WNW 15 24 8 13 1010.7 - 0.2
01/04:30pm 8.3 4.5 3.9 74 1.9 W 13 19 7 10 1010.3 - 0.2
01/04:00pm 9.0 3.8 3.4 68 2.4 W 20 28 11 15 1010.2 - 0.2
01/03:30pm 9.6 4.6 4.4 70 2.3 W 20 28 11 15 1009.9 - 0.2
01/03:02pm 8.8 1.6 5.2 78 1.6 WNW 32 50 17 27 1009.8 - 0.2
01/03:00pm 8.5 1.0 4.7 77 1.7 W 33 50 18 27 1009.8 1009.8 0.2
01/02:30pm 10.3 1.7 2.7 59 3.3 W 37 46 20 25 1009.3 - 0.2
01/02:00pm 10.0 1.6 3.7 65 2.8 W 37 50 20 27 1009.1 - 0.2
01/01:30pm 10.3 2.2 3.3 62 3.0 W 35 44 19 24 1009.3 - 0.2
01/01:10pm 10.2 1.5 2.3 58 3.4 W 37 56 20 30 1009.4 - 0.2
01/01:00pm 10.1 0.6 1.7 56 3.5 W 41 57 22 31 1009.3 - 0.2
01/12:44pm 10.6 2.0 2.7 58 3.4 W 37 57 20 31 1009.3 - 0.2
01/12:30pm 10.3 1.5 3.6 63 2.9 W 39 50 21 27 1009.1 - 0.2
01/12:08pm 9.6 1.6 3.6 66 2.6 W 35 54 19 29 1009.1 - 0.2
01/12:00pm 10.4 1.6 3.4 62 3.1 W 39 52 21 28 1009.1 1009.1 0.2
01/11:53am 10.4 2.5 2.5 58 3.4 W 33 52 18 28 1008.9 - 0.2
01/11:30am 10.1 1.3 3.4 63 2.9 W 39 52 21 28 1009.0 - 0.2

Other Formats:

Comma delimited format used in spreadsheet applications
http://www.bom.gov.au/fwo/IDT60801/IDT60801.94953.axf

JavaScript Object Notation format (JSON) in row-major order
http://www.bom.gov.au/fwo/IDT60801/IDT60801.94953.json